sensor_id;sensor_type;location;lat;lon;timestamp;temperature;humidity
13976;DHT22;7062;49.792;9.946;2023-09-19T00:00:38;18.10;99.90
13976;DHT22;7062;49.792;9.946;2023-09-19T00:03:06;18.10;99.90
13976;DHT22;7062;49.792;9.946;2023-09-19T00:05:35;18.30;99.90
13976;DHT22;7062;49.792;9.946;2023-09-19T00:08:01;18.00;99.90
13976;DHT22;7062;49.792;9.946;2023-09-19T00:10:31;18.00;99.90
13976;DHT22;7062;49.792;9.946;2023-09-19T00:13:00;18.00;99.90
13976;DHT22;7062;49.792;9.946;2023-09-19T00:15:31;18.00;99.90
13976;DHT22;7062;49.792;9.946;2023-09-19T00:17:58;18.00;99.90
13976;DHT22;7062;49.792;9.946;2023-09-19T00:20:24;17.90;99.90
13976;DHT22;7062;49.792;9.946;2023-09-19T00:22:50;17.90;99.90
13976;DHT22;7062;49.792;9.946;2023-09-19T00:25:17;17.90;99.90
13976;DHT22;7062;49.792;9.946;2023-09-19T00:27:44;17.90;99.90
13976;DHT22;7062;49.792;9.946;2023-09-19T00:30:11;17.90;99.90
13976;DHT22;7062;49.792;9.946;2023-09-19T00:32:42;17.80;99.90
13976;DHT22;7062;49.792;9.946;2023-09-19T00:35:08;17.80;99.90
13976;DHT22;7062;49.792;9.946;2023-09-19T00:37:37;17.80;99.90
13976;DHT22;7062;49.792;9.946;2023-09-19T00:40:06;17.80;99.90
13976;DHT22;7062;49.792;9.946;2023-09-19T00:42:32;17.80;99.90
13976;DHT22;7062;49.792;9.946;2023-09-19T00:44:59;17.80;99.90
13976;DHT22;7062;49.792;9.946;2023-09-19T00:47:28;17.70;99.90
13976;DHT22;7062;49.792;9.946;2023-09-19T00:49:55;17.70;99.90
13976;DHT22;7062;49.792;9.946;2023-09-19T00:52:21;17.70;99.90
13976;DHT22;7062;49.792;9.946;2023-09-19T00:54:48;17.70;99.90
13976;DHT22;7062;49.792;9.946;2023-09-19T00:57:14;17.60;99.90
13976;DHT22;7062;49.792;9.946;2023-09-19T00:59:45;17.60;99.90
13976;DHT22;7062;49.792;9.946;2023-09-19T01:02:13;17.60;99.90
13976;DHT22;7062;49.792;9.946;2023-09-19T01:04:40;17.60;99.90
13976;DHT22;7062;49.792;9.946;2023-09-19T01:07:07;17.60;99.90
13976;DHT22;7062;49.792;9.946;2023-09-19T01:09:34;17.50;99.90
13976;DHT22;7062;49.792;9.946;2023-09-19T01:12:02;17.50;99.90
13976;DHT22;7062;49.792;9.946;2023-09-19T01:14:49;17.50;99.90
13976;DHT22;7062;49.792;9.946;2023-09-19T01:18:40;17.50;99.90
13976;DHT22;7062;49.792;9.946;2023-09-19T01:29:38;17.60;99.90
13976;DHT22;7062;49.792;9.946;2023-09-19T01:32:06;17.60;99.90
13976;DHT22;7062;49.792;9.946;2023-09-19T01:34:53;17.60;99.90
13976;DHT22;7062;49.792;9.946;2023-09-19T01:37:20;17.50;99.90
13976;DHT22;7062;49.792;9.946;2023-09-19T01:39:55;17.50;99.90
13976;DHT22;7062;49.792;9.946;2023-09-19T01:47:48;17.40;99.90
13976;DHT22;7062;49.792;9.946;2023-09-19T01:53:30;17.40;99.90
13976;DHT22;7062;49.792;9.946;2023-09-19T01:55:59;17.40;99.90
13976;DHT22;7062;49.792;9.946;2023-09-19T02:00:53;17.30;99.90
13976;DHT22;7062;49.792;9.946;2023-09-19T02:03:21;17.30;99.90
13976;DHT22;7062;49.792;9.946;2023-09-19T02:05:51;17.30;99.90
13976;DHT22;7062;49.792;9.946;2023-09-19T02:08:21;17.30;99.90
13976;DHT22;7062;49.792;9.946;2023-09-19T02:10:49;17.30;99.90
13976;DHT22;7062;49.792;9.946;2023-09-19T02:13:19;17.30;99.90
13976;DHT22;7062;49.792;9.946;2023-09-19T02:15:45;17.30;99.90
13976;DHT22;7062;49.792;9.946;2023-09-19T02:18:14;17.20;99.90
13976;DHT22;7062;49.792;9.946;2023-09-19T02:20:40;17.20;99.90
13976;DHT22;7062;49.792;9.946;2023-09-19T02:23:06;17.20;99.90
13976;DHT22;7062;49.792;9.946;2023-09-19T02:25:33;17.30;99.90
13976;DHT22;7062;49.792;9.946;2023-09-19T02:27:59;17.20;99.90
13976;DHT22;7062;49.792;9.946;2023-09-19T02:30:26;17.30;99.90
13976;DHT22;7062;49.792;9.946;2023-09-19T02:32:52;17.30;99.90
13976;DHT22;7062;49.792;9.946;2023-09-19T02:35:18;17.20;99.90
13976;DHT22;7062;49.792;9.946;2023-09-19T02:37:47;17.20;99.90
13976;DHT22;7062;49.792;9.946;2023-09-19T02:40:13;17.20;99.90
13976;DHT22;7062;49.792;9.946;2023-09-19T02:42:48;17.20;99.90
13976;DHT22;7062;49.792;9.946;2023-09-19T02:45:18;17.20;99.90
13976;DHT22;7062;49.792;9.946;2023-09-19T02:47:47;17.20;99.90
13976;DHT22;7062;49.792;9.946;2023-09-19T02:50:13;17.20;99.90
13976;DHT22;7062;49.792;9.946;2023-09-19T02:52:42;17.20;99.90
13976;DHT22;7062;49.792;9.946;2023-09-19T02:55:12;17.30;99.90
13976;DHT22;7062;49.792;9.946;2023-09-19T02:57:50;17.30;99.90
13976;DHT22;7062;49.792;9.946;2023-09-19T03:00:18;17.30;99.90
13976;DHT22;7062;49.792;9.946;2023-09-19T03:02:54;17.30;99.90
13976;DHT22;7062;49.792;9.946;2023-09-19T03:05:21;17.40;99.90
13976;DHT22;7062;49.792;9.946;2023-09-19T03:07:49;17.40;99.90
13976;DHT22;7062;49.792;9.946;2023-09-19T03:10:16;17.40;99.90
13976;DHT22;7062;49.792;9.946;2023-09-19T03:12:43;17.30;99.90
13976;DHT22;7062;49.792;9.946;2023-09-19T03:15:09;17.30;99.90
13976;DHT22;7062;49.792;9.946;2023-09-19T03:17:34;17.20;99.90
13976;DHT22;7062;49.792;9.946;2023-09-19T03:20:02;17.10;99.90
13976;DHT22;7062;49.792;9.946;2023-09-19T03:22:28;17.00;99.90
13976;DHT22;7062;49.792;9.946;2023-09-19T03:24:53;17.00;99.90
13976;DHT22;7062;49.792;9.946;2023-09-19T03:27:19;16.90;99.90
13976;DHT22;7062;49.792;9.946;2023-09-19T03:29:49;16.90;99.90
13976;DHT22;7062;49.792;9.946;2023-09-19T03:32:14;16.90;99.90
13976;DHT22;7062;49.792;9.946;2023-09-19T03:34:40;16.80;99.90
13976;DHT22;7062;49.792;9.946;2023-09-19T03:37:11;16.80;99.90
13976;DHT22;7062;49.792;9.946;2023-09-19T03:39:37;16.80;99.90
13976;DHT22;7062;49.792;9.946;2023-09-19T03:42:03;16.80;99.90
13976;DHT22;7062;49.792;9.946;2023-09-19T03:44:30;16.90;99.90
13976;DHT22;7062;49.792;9.946;2023-09-19T03:46:56;16.90;99.90
13976;DHT22;7062;49.792;9.946;2023-09-19T03:49:22;16.80;99.90
13976;DHT22;7062;49.792;9.946;2023-09-19T03:51:48;16.90;99.90
13976;DHT22;7062;49.792;9.946;2023-09-19T03:54:13;16.90;99.90
13976;DHT22;7062;49.792;9.946;2023-09-19T03:56:39;16.80;99.90
13976;DHT22;7062;49.792;9.946;2023-09-19T03:59:04;16.80;99.90
13976;DHT22;7062;49.792;9.946;2023-09-19T04:01:30;16.90;99.90
13976;DHT22;7062;49.792;9.946;2023-09-19T04:03:58;16.80;99.90
13976;DHT22;7062;49.792;9.946;2023-09-19T04:06:24;16.80;99.90
13976;DHT22;7062;49.792;9.946;2023-09-19T04:08:50;16.90;99.90
13976;DHT22;7062;49.792;9.946;2023-09-19T04:11:15;16.90;99.90
13976;DHT22;7062;49.792;9.946;2023-09-19T04:13:41;16.90;99.90
13976;DHT22;7062;49.792;9.946;2023-09-19T04:16:07;16.90;99.90
13976;DHT22;7062;49.792;9.946;2023-09-19T04:18:33;16.90;99.90
13976;DHT22;7062;49.792;9.946;2023-09-19T04:21:02;16.90;99.90
13976;DHT22;7062;49.792;9.946;2023-09-19T04:23:29;16.90;99.90
13976;DHT22;7062;49.792;9.946;2023-09-19T04:25:55;16.90;99.90
13976;DHT22;7062;49.792;9.946;2023-09-19T04:28:20;16.80;99.90
13976;DHT22;7062;49.792;9.946;2023-09-19T04:30:46;16.90;99.90
13976;DHT22;7062;49.792;9.946;2023-09-19T04:33:12;16.90;99.90
13976;DHT22;7062;49.792;9.946;2023-09-19T04:35:40;16.90;99.90
13976;DHT22;7062;49.792;9.946;2023-09-19T04:38:08;16.90;99.90
13976;DHT22;7062;49.792;9.946;2023-09-19T04:40:34;16.80;99.90
13976;DHT22;7062;49.792;9.946;2023-09-19T04:43:00;16.70;99.90
13976;DHT22;7062;49.792;9.946;2023-09-19T04:45:26;16.70;99.90
13976;DHT22;7062;49.792;9.946;2023-09-19T04:47:53;16.80;99.90
13976;DHT22;7062;49.792;9.946;2023-09-19T04:50:19;16.70;99.90
13976;DHT22;7062;49.792;9.946;2023-09-19T04:52:49;16.60;99.90
13976;DHT22;7062;49.792;9.946;2023-09-19T04:55:17;16.60;99.90
13976;DHT22;7062;49.792;9.946;2023-09-19T04:57:50;16.60;99.90
13976;DHT22;7062;49.792;9.946;2023-09-19T05:00:18;16.60;99.90
13976;DHT22;7062;49.792;9.946;2023-09-19T05:02:54;16.60;99.90
13976;DHT22;7062;49.792;9.946;2023-09-19T05:05:20;16.60;99.90
13976;DHT22;7062;49.792;9.946;2023-09-19T05:07:48;16.60;99.90
13976;DHT22;7062;49.792;9.946;2023-09-19T05:10:14;16.50;99.90
13976;DHT22;7062;49.792;9.946;2023-09-19T05:12:40;16.50;99.90
13976;DHT22;7062;49.792;9.946;2023-09-19T05:15:07;16.50;99.90
13976;DHT22;7062;49.792;9.946;2023-09-19T05:17:33;16.50;99.90
13976;DHT22;7062;49.792;9.946;2023-09-19T05:20:00;16.50;99.90
13976;DHT22;7062;49.792;9.946;2023-09-19T05:22:32;16.50;99.90
13976;DHT22;7062;49.792;9.946;2023-09-19T05:25:00;16.60;99.90
13976;DHT22;7062;49.792;9.946;2023-09-19T05:27:28;16.60;99.90
13976;DHT22;7062;49.792;9.946;2023-09-19T05:29:54;16.60;99.90
13976;DHT22;7062;49.792;9.946;2023-09-19T05:32:21;16.60;99.90
13976;DHT22;7062;49.792;9.946;2023-09-19T05:34:47;16.60;99.90
13976;DHT22;7062;49.792;9.946;2023-09-19T05:37:13;16.60;99.90
13976;DHT22;7062;49.792;9.946;2023-09-19T05:39:41;16.70;99.90
13976;DHT22;7062;49.792;9.946;2023-09-19T05:42:07;16.70;99.90
13976;DHT22;7062;49.792;9.946;2023-09-19T05:44:33;16.70;99.90
13976;DHT22;7062;49.792;9.946;2023-09-19T05:46:59;16.70;99.90
13976;DHT22;7062;49.792;9.946;2023-09-19T05:49:25;16.80;99.90
13976;DHT22;7062;49.792;9.946;2023-09-19T05:51:51;16.80;99.90
13976;DHT22;7062;49.792;9.946;2023-09-19T05:54:20;16.90;99.90
13976;DHT22;7062;49.792;9.946;2023-09-19T05:56:46;16.90;99.90
13976;DHT22;7062;49.792;9.946;2023-09-19T05:59:12;16.90;99.90
13976;DHT22;7062;49.792;9.946;2023-09-19T06:01:43;16.90;99.90
13976;DHT22;7062;49.792;9.946;2023-09-19T06:04:09;17.00;99.90
13976;DHT22;7062;49.792;9.946;2023-09-19T06:06:35;16.90;99.90
13976;DHT22;7062;49.792;9.946;2023-09-19T06:09:04;16.90;99.90
13976;DHT22;7062;49.792;9.946;2023-09-19T06:11:35;16.90;99.90
13976;DHT22;7062;49.792;9.946;2023-09-19T06:14:02;17.00;99.90
13976;DHT22;7062;49.792;9.946;2023-09-19T06:16:28;16.90;99.90
13976;DHT22;7062;49.792;9.946;2023-09-19T06:18:55;17.00;99.90
13976;DHT22;7062;49.792;9.946;2023-09-19T06:21:22;17.00;99.90
13976;DHT22;7062;49.792;9.946;2023-09-19T06:23:48;17.10;99.90
13976;DHT22;7062;49.792;9.946;2023-09-19T06:26:14;17.10;99.90
13976;DHT22;7062;49.792;9.946;2023-09-19T06:28:40;17.20;99.90
13976;DHT22;7062;49.792;9.946;2023-09-19T06:31:06;17.20;99.90
13976;DHT22;7062;49.792;9.946;2023-09-19T06:33:37;17.20;99.90
13976;DHT22;7062;49.792;9.946;2023-09-19T06:36:06;17.10;99.90
13976;DHT22;7062;49.792;9.946;2023-09-19T06:38:32;17.20;99.90
13976;DHT22;7062;49.792;9.946;2023-09-19T06:41:00;17.20;99.90
13976;DHT22;7062;49.792;9.946;2023-09-19T06:43:27;17.20;99.90
13976;DHT22;7062;49.792;9.946;2023-09-19T06:45:53;17.10;99.90
13976;DHT22;7062;49.792;9.946;2023-09-19T06:48:20;17.10;99.90
13976;DHT22;7062;49.792;9.946;2023-09-19T06:50:46;17.10;99.90
13976;DHT22;7062;49.792;9.946;2023-09-19T06:53:13;17.10;99.90
13976;DHT22;7062;49.792;9.946;2023-09-19T06:55:39;17.10;99.90
13976;DHT22;7062;49.792;9.946;2023-09-19T06:58:05;17.10;99.90
13976;DHT22;7062;49.792;9.946;2023-09-19T07:00:31;17.20;99.90
13976;DHT22;7062;49.792;9.946;2023-09-19T07:03:00;17.20;99.90
13976;DHT22;7062;49.792;9.946;2023-09-19T07:05:27;17.20;99.90
13976;DHT22;7062;49.792;9.946;2023-09-19T07:07:53;17.20;99.90
13976;DHT22;7062;49.792;9.946;2023-09-19T07:10:22;17.20;99.90
13976;DHT22;7062;49.792;9.946;2023-09-19T07:12:55;17.30;99.90
13976;DHT22;7062;49.792;9.946;2023-09-19T07:15:21;17.40;99.90
13976;DHT22;7062;49.792;9.946;2023-09-19T07:17:48;17.50;99.90
13976;DHT22;7062;49.792;9.946;2023-09-19T07:20:14;17.50;99.90
13976;DHT22;7062;49.792;9.946;2023-09-19T07:22:41;17.50;99.90
13976;DHT22;7062;49.792;9.946;2023-09-19T07:25:07;17.60;99.90
13976;DHT22;7062;49.792;9.946;2023-09-19T07:27:33;17.70;99.90
13976;DHT22;7062;49.792;9.946;2023-09-19T07:29:59;17.90;99.90
13976;DHT22;7062;49.792;9.946;2023-09-19T07:32:24;17.80;99.90
13976;DHT22;7062;49.792;9.946;2023-09-19T07:34:50;18.10;99.90
13976;DHT22;7062;49.792;9.946;2023-09-19T07:37:16;18.10;99.90
13976;DHT22;7062;49.792;9.946;2023-09-19T07:39:42;18.20;99.90
13976;DHT22;7062;49.792;9.946;2023-09-19T07:42:08;18.20;99.90
13976;DHT22;7062;49.792;9.946;2023-09-19T07:44:35;18.40;99.90
13976;DHT22;7062;49.792;9.946;2023-09-19T07:47:02;18.40;99.90
13976;DHT22;7062;49.792;9.946;2023-09-19T07:49:28;18.40;99.90
13976;DHT22;7062;49.792;9.946;2023-09-19T07:51:54;18.40;99.90
13976;DHT22;7062;49.792;9.946;2023-09-19T07:54:20;18.30;99.90
13976;DHT22;7062;49.792;9.946;2023-09-19T07:56:46;18.40;99.90
13976;DHT22;7062;49.792;9.946;2023-09-19T07:59:12;18.50;99.90
13976;DHT22;7062;49.792;9.946;2023-09-19T08:01:39;18.60;99.90
13976;DHT22;7062;49.792;9.946;2023-09-19T08:04:07;18.70;99.90
13976;DHT22;7062;49.792;9.946;2023-09-19T08:06:32;18.70;99.90
13976;DHT22;7062;49.792;9.946;2023-09-19T08:08:58;18.60;99.90
13976;DHT22;7062;49.792;9.946;2023-09-19T08:11:26;18.60;99.90
13976;DHT22;7062;49.792;9.946;2023-09-19T08:13:51;18.60;99.90
13976;DHT22;7062;49.792;9.946;2023-09-19T08:16:18;18.50;99.90
13976;DHT22;7062;49.792;9.946;2023-09-19T08:18:48;18.40;99.90
13976;DHT22;7062;49.792;9.946;2023-09-19T08:21:18;18.50;99.90
13976;DHT22;7062;49.792;9.946;2023-09-19T08:23:44;18.70;99.90
13976;DHT22;7062;49.792;9.946;2023-09-19T08:26:11;18.80;99.90
13976;DHT22;7062;49.792;9.946;2023-09-19T08:28:37;18.80;99.90
13976;DHT22;7062;49.792;9.946;2023-09-19T08:31:07;19.00;99.90
13976;DHT22;7062;49.792;9.946;2023-09-19T08:33:34;19.00;99.90
13976;DHT22;7062;49.792;9.946;2023-09-19T08:36:01;19.20;99.90
13976;DHT22;7062;49.792;9.946;2023-09-19T08:38:33;19.30;99.90
13976;DHT22;7062;49.792;9.946;2023-09-19T08:41:00;19.30;99.90
13976;DHT22;7062;49.792;9.946;2023-09-19T08:43:27;19.50;99.90
13976;DHT22;7062;49.792;9.946;2023-09-19T08:46:09;19.70;99.90
13976;DHT22;7062;49.792;9.946;2023-09-19T08:51:26;19.60;99.90
13976;DHT22;7062;49.792;9.946;2023-09-19T08:54:08;19.70;99.90
13976;DHT22;7062;49.792;9.946;2023-09-19T08:56:39;19.80;99.90
13976;DHT22;7062;49.792;9.946;2023-09-19T08:59:06;19.60;99.90
13976;DHT22;7062;49.792;9.946;2023-09-19T09:01:37;19.30;99.90
13976;DHT22;7062;49.792;9.946;2023-09-19T09:04:08;19.20;99.90
13976;DHT22;7062;49.792;9.946;2023-09-19T09:06:39;19.30;99.90
13976;DHT22;7062;49.792;9.946;2023-09-19T09:09:08;19.40;99.90
13976;DHT22;7062;49.792;9.946;2023-09-19T09:11:34;19.50;99.90
13976;DHT22;7062;49.792;9.946;2023-09-19T09:14:02;19.50;99.90
13976;DHT22;7062;49.792;9.946;2023-09-19T09:16:29;19.70;99.90
13976;DHT22;7062;49.792;9.946;2023-09-19T09:18:55;19.70;99.90
13976;DHT22;7062;49.792;9.946;2023-09-19T09:21:22;19.80;99.90
13976;DHT22;7062;49.792;9.946;2023-09-19T09:23:50;19.70;99.90
13976;DHT22;7062;49.792;9.946;2023-09-19T09:26:17;20.50;99.90
13976;DHT22;7062;49.792;9.946;2023-09-19T09:28:46;21.10;99.90
13976;DHT22;7062;49.792;9.946;2023-09-19T09:31:23;21.50;99.90
13976;DHT22;7062;49.792;9.946;2023-09-19T09:33:56;21.90;99.90
13976;DHT22;7062;49.792;9.946;2023-09-19T09:36:52;21.80;99.90
13976;DHT22;7062;49.792;9.946;2023-09-19T09:39:30;21.60;99.90
13976;DHT22;7062;49.792;9.946;2023-09-19T09:41:57;21.70;99.90
13976;DHT22;7062;49.792;9.946;2023-09-19T09:44:24;21.30;99.90
13976;DHT22;7062;49.792;9.946;2023-09-19T09:46:50;20.40;99.90
13976;DHT22;7062;49.792;9.946;2023-09-19T09:49:26;21.30;99.90
13976;DHT22;7062;49.792;9.946;2023-09-19T09:52:02;21.90;99.90
13976;DHT22;7062;49.792;9.946;2023-09-19T09:54:33;22.20;99.90
13976;DHT22;7062;49.792;9.946;2023-09-19T09:57:07;22.00;99.90
13976;DHT22;7062;49.792;9.946;2023-09-19T09:59:51;21.60;99.90
13976;DHT22;7062;49.792;9.946;2023-09-19T10:02:36;20.80;99.90
13976;DHT22;7062;49.792;9.946;2023-09-19T10:05:19;21.30;99.90
13976;DHT22;7062;49.792;9.946;2023-09-19T10:07:49;22.60;99.90
13976;DHT22;7062;49.792;9.946;2023-09-19T10:10:39;22.40;99.90
13976;DHT22;7062;49.792;9.946;2023-09-19T10:13:12;22.80;99.90
13976;DHT22;7062;49.792;9.946;2023-09-19T10:15:39;22.50;99.90
13976;DHT22;7062;49.792;9.946;2023-09-19T10:18:12;22.70;99.90
13976;DHT22;7062;49.792;9.946;2023-09-19T10:20:45;23.40;99.90
13976;DHT22;7062;49.792;9.946;2023-09-19T10:23:12;23.70;99.90
13976;DHT22;7062;49.792;9.946;2023-09-19T10:25:42;23.60;99.90
13976;DHT22;7062;49.792;9.946;2023-09-19T10:28:12;24.00;99.90
13976;DHT22;7062;49.792;9.946;2023-09-19T10:30:41;24.20;99.90
13976;DHT22;7062;49.792;9.946;2023-09-19T10:33:14;23.60;99.90
13976;DHT22;7062;49.792;9.946;2023-09-19T10:35:43;22.90;99.90
13976;DHT22;7062;49.792;9.946;2023-09-19T10:38:13;22.30;99.90
13976;DHT22;7062;49.792;9.946;2023-09-19T10:40:40;21.90;99.90
13976;DHT22;7062;49.792;9.946;2023-09-19T10:43:16;22.40;99.90
13976;DHT22;7062;49.792;9.946;2023-09-19T10:45:45;23.90;99.90
13976;DHT22;7062;49.792;9.946;2023-09-19T10:48:16;24.00;99.90
13976;DHT22;7062;49.792;9.946;2023-09-19T10:53:27;24.90;99.90
13976;DHT22;7062;49.792;9.946;2023-09-19T10:55:57;25.90;99.40
13976;DHT22;7062;49.792;9.946;2023-09-19T10:58:31;26.00;97.60
13976;DHT22;7062;49.792;9.946;2023-09-19T11:01:04;26.60;98.40
13976;DHT22;7062;49.792;9.946;2023-09-19T11:03:38;26.60;96.60
13976;DHT22;7062;49.792;9.946;2023-09-19T11:06:16;26.00;97.40
13976;DHT22;7062;49.792;9.946;2023-09-19T11:09:03;26.80;96.30
13976;DHT22;7062;49.792;9.946;2023-09-19T11:11:38;27.60;95.10
13976;DHT22;7062;49.792;9.946;2023-09-19T11:16:40;28.90;92.60
13976;DHT22;7062;49.792;9.946;2023-09-19T11:19:05;29.40;91.90
13976;DHT22;7062;49.792;9.946;2023-09-19T11:26:43;29.10;90.40
13976;DHT22;7062;49.792;9.946;2023-09-19T11:29:29;29.20;90.60
13976;DHT22;7062;49.792;9.946;2023-09-19T11:31:59;29.10;90.20
13976;DHT22;7062;49.792;9.946;2023-09-19T11:34:38;27.20;91.00
13976;DHT22;7062;49.792;9.946;2023-09-19T11:39:37;25.90;91.40
13976;DHT22;7062;49.792;9.946;2023-09-19T11:42:41;25.20;92.00
13976;DHT22;7062;49.792;9.946;2023-09-19T11:45:07;26.70;92.40
13976;DHT22;7062;49.792;9.946;2023-09-19T11:47:33;27.10;92.00
13976;DHT22;7062;49.792;9.946;2023-09-19T11:50:01;28.50;91.40
13976;DHT22;7062;49.792;9.946;2023-09-19T11:52:28;29.50;90.10
13976;DHT22;7062;49.792;9.946;2023-09-19T11:55:00;29.90;86.70
13976;DHT22;7062;49.792;9.946;2023-09-19T11:57:28;28.80;86.90
13976;DHT22;7062;49.792;9.946;2023-09-19T11:59:55;28.60;85.00
13976;DHT22;7062;49.792;9.946;2023-09-19T12:02:42;28.80;85.20
13976;DHT22;7062;49.792;9.946;2023-09-19T12:05:12;29.00;83.60
13976;DHT22;7062;49.792;9.946;2023-09-19T12:07:44;28.80;85.30
13976;DHT22;7062;49.792;9.946;2023-09-19T12:10:13;29.30;83.70
13976;DHT22;7062;49.792;9.946;2023-09-19T12:12:47;29.80;82.60
13976;DHT22;7062;49.792;9.946;2023-09-19T12:15:13;28.90;83.40
13976;DHT22;7062;49.792;9.946;2023-09-19T12:17:40;29.00;84.60
13976;DHT22;7062;49.792;9.946;2023-09-19T12:20:08;28.30;84.10
13976;DHT22;7062;49.792;9.946;2023-09-19T12:22:44;28.20;85.10
13976;DHT22;7062;49.792;9.946;2023-09-19T12:25:12;29.30;83.90
13976;DHT22;7062;49.792;9.946;2023-09-19T12:27:45;30.30;82.20
13976;DHT22;7062;49.792;9.946;2023-09-19T12:30:12;31.20;79.30
13976;DHT22;7062;49.792;9.946;2023-09-19T12:32:43;28.50;81.60
13976;DHT22;7062;49.792;9.946;2023-09-19T12:35:10;28.10;82.70
13976;DHT22;7062;49.792;9.946;2023-09-19T12:37:47;28.40;82.80
13976;DHT22;7062;49.792;9.946;2023-09-19T12:40:21;28.70;81.90
13976;DHT22;7062;49.792;9.946;2023-09-19T12:42:56;29.30;81.60
13976;DHT22;7062;49.792;9.946;2023-09-19T12:45:24;30.50;80.20
13976;DHT22;7062;49.792;9.946;2023-09-19T12:48:24;31.20;78.10
13976;DHT22;7062;49.792;9.946;2023-09-19T12:51:10;29.70;79.70
13976;DHT22;7062;49.792;9.946;2023-09-19T12:53:45;28.90;81.80
13976;DHT22;7062;49.792;9.946;2023-09-19T12:56:17;29.70;79.90
13976;DHT22;7062;49.792;9.946;2023-09-19T12:58:57;29.70;79.90
13976;DHT22;7062;49.792;9.946;2023-09-19T13:01:25;31.10;76.30
13976;DHT22;7062;49.792;9.946;2023-09-19T13:04:13;30.20;76.00
13976;DHT22;7062;49.792;9.946;2023-09-19T13:06:44;30.40;75.30
13976;DHT22;7062;49.792;9.946;2023-09-19T13:09:10;29.00;76.20
13976;DHT22;7062;49.792;9.946;2023-09-19T13:11:38;28.40;78.00
13976;DHT22;7062;49.792;9.946;2023-09-19T13:17:10;31.10;75.80
13976;DHT22;7062;49.792;9.946;2023-09-19T13:19:47;31.10;73.50
13976;DHT22;7062;49.792;9.946;2023-09-19T13:22:45;30.00;75.20
13976;DHT22;7062;49.792;9.946;2023-09-19T13:25:16;29.30;76.90
13976;DHT22;7062;49.792;9.946;2023-09-19T13:30:13;31.00;74.30
13976;DHT22;7062;49.792;9.946;2023-09-19T13:32:39;31.70;73.90
13976;DHT22;7062;49.792;9.946;2023-09-19T13:35:07;32.40;72.60
13976;DHT22;7062;49.792;9.946;2023-09-19T13:37:37;32.70;71.50
13976;DHT22;7062;49.792;9.946;2023-09-19T13:40:07;32.20;71.60
13976;DHT22;7062;49.792;9.946;2023-09-19T13:42:33;30.30;72.50
13976;DHT22;7062;49.792;9.946;2023-09-19T13:44:59;29.90;74.60
13976;DHT22;7062;49.792;9.946;2023-09-19T13:47:25;31.10;73.80
13976;DHT22;7062;49.792;9.946;2023-09-19T13:49:52;31.00;72.90
13976;DHT22;7062;49.792;9.946;2023-09-19T13:52:19;31.60;72.40
13976;DHT22;7062;49.792;9.946;2023-09-19T13:54:45;31.20;71.80
13976;DHT22;7062;49.792;9.946;2023-09-19T13:57:10;31.90;71.00
13976;DHT22;7062;49.792;9.946;2023-09-19T13:59:36;31.10;70.60
13976;DHT22;7062;49.792;9.946;2023-09-19T14:02:02;30.60;71.50
13976;DHT22;7062;49.792;9.946;2023-09-19T14:04:31;31.10;72.10
13976;DHT22;7062;49.792;9.946;2023-09-19T14:06:57;30.80;71.30
13976;DHT22;7062;49.792;9.946;2023-09-19T14:09:23;30.40;72.40
13976;DHT22;7062;49.792;9.946;2023-09-19T14:11:50;30.60;72.00
13976;DHT22;7062;49.792;9.946;2023-09-19T14:14:18;30.30;71.90
13976;DHT22;7062;49.792;9.946;2023-09-19T14:16:44;30.70;72.10
13976;DHT22;7062;49.792;9.946;2023-09-19T14:19:09;32.30;70.40
13976;DHT22;7062;49.792;9.946;2023-09-19T14:21:35;32.50;69.30
13976;DHT22;7062;49.792;9.946;2023-09-19T14:24:02;31.70;70.80
13976;DHT22;7062;49.792;9.946;2023-09-19T14:26:28;30.30;72.20
13976;DHT22;7062;49.792;9.946;2023-09-19T14:28:54;30.00;73.00
13976;DHT22;7062;49.792;9.946;2023-09-19T14:31:20;28.70;74.50
13976;DHT22;7062;49.792;9.946;2023-09-19T14:33:56;28.00;76.20
13976;DHT22;7062;49.792;9.946;2023-09-19T14:36:22;27.60;77.60
13976;DHT22;7062;49.792;9.946;2023-09-19T14:38:48;27.80;77.30
13976;DHT22;7062;49.792;9.946;2023-09-19T14:41:19;27.10;77.30
13976;DHT22;7062;49.792;9.946;2023-09-19T14:43:44;26.30;79.10
13976;DHT22;7062;49.792;9.946;2023-09-19T14:46:10;25.60;80.90
13976;DHT22;7062;49.792;9.946;2023-09-19T14:48:36;25.70;80.80
13976;DHT22;7062;49.792;9.946;2023-09-19T14:51:03;25.60;80.90
13976;DHT22;7062;49.792;9.946;2023-09-19T14:53:29;26.00;81.20
13976;DHT22;7062;49.792;9.946;2023-09-19T14:55:55;26.30;80.20
13976;DHT22;7062;49.792;9.946;2023-09-19T14:58:21;26.40;80.20
13976;DHT22;7062;49.792;9.946;2023-09-19T15:00:47;26.40;80.80
13976;DHT22;7062;49.792;9.946;2023-09-19T15:03:12;26.30;81.00
13976;DHT22;7062;49.792;9.946;2023-09-19T15:05:39;25.70;81.60
13976;DHT22;7062;49.792;9.946;2023-09-19T15:08:05;24.70;83.30
13976;DHT22;7062;49.792;9.946;2023-09-19T15:10:31;24.20;85.10
13976;DHT22;7062;49.792;9.946;2023-09-19T15:12:57;24.30;85.00
13976;DHT22;7062;49.792;9.946;2023-09-19T15:15:23;23.60;86.80
13976;DHT22;7062;49.792;9.946;2023-09-19T15:17:48;23.60;87.50
13976;DHT22;7062;49.792;9.946;2023-09-19T15:20:14;23.80;87.50
13976;DHT22;7062;49.792;9.946;2023-09-19T15:22:40;23.80;87.80
13976;DHT22;7062;49.792;9.946;2023-09-19T15:25:06;23.60;87.70
13976;DHT22;7062;49.792;9.946;2023-09-19T15:27:32;23.80;88.00
13976;DHT22;7062;49.792;9.946;2023-09-19T15:30:00;23.50;88.40
13976;DHT22;7062;49.792;9.946;2023-09-19T15:32:26;23.20;89.40
13976;DHT22;7062;49.792;9.946;2023-09-19T15:34:52;23.20;90.20
13976;DHT22;7062;49.792;9.946;2023-09-19T15:37:17;23.40;89.60
13976;DHT22;7062;49.792;9.946;2023-09-19T15:39:44;23.50;89.80
13976;DHT22;7062;49.792;9.946;2023-09-19T15:42:11;23.50;89.90
13976;DHT22;7062;49.792;9.946;2023-09-19T15:44:37;23.50;90.00
13976;DHT22;7062;49.792;9.946;2023-09-19T15:47:06;23.70;90.10
13976;DHT22;7062;49.792;9.946;2023-09-19T15:49:31;23.70;90.20
13976;DHT22;7062;49.792;9.946;2023-09-19T15:51:57;24.20;90.00
13976;DHT22;7062;49.792;9.946;2023-09-19T15:54:25;24.50;89.40
13976;DHT22;7062;49.792;9.946;2023-09-19T15:56:51;24.70;89.10
13976;DHT22;7062;49.792;9.946;2023-09-19T15:59:17;24.70;88.90
13976;DHT22;7062;49.792;9.946;2023-09-19T16:01:43;24.30;89.70
13976;DHT22;7062;49.792;9.946;2023-09-19T16:04:10;24.20;90.10
13976;DHT22;7062;49.792;9.946;2023-09-19T16:06:37;24.10;90.40
13976;DHT22;7062;49.792;9.946;2023-09-19T16:09:03;23.80;90.60
13976;DHT22;7062;49.792;9.946;2023-09-19T16:11:32;23.60;91.00
13976;DHT22;7062;49.792;9.946;2023-09-19T16:13:58;23.60;91.30
13976;DHT22;7062;49.792;9.946;2023-09-19T16:16:26;23.60;91.40
13976;DHT22;7062;49.792;9.946;2023-09-19T16:18:57;23.30;91.70
13976;DHT22;7062;49.792;9.946;2023-09-19T16:21:25;22.80;92.50
13976;DHT22;7062;49.792;9.946;2023-09-19T16:23:55;22.70;92.60
13976;DHT22;7062;49.792;9.946;2023-09-19T16:26:22;22.70;92.90
13976;DHT22;7062;49.792;9.946;2023-09-19T16:28:51;22.50;93.10
13976;DHT22;7062;49.792;9.946;2023-09-19T16:31:17;22.40;93.40
13976;DHT22;7062;49.792;9.946;2023-09-19T16:33:45;22.20;93.70
13976;DHT22;7062;49.792;9.946;2023-09-19T16:36:18;22.30;93.90